Time,TemperatureF,DewpointF,PressureIn,WindDirection,WindDirectionDegrees,WindSpeedMPH,WindSpeedGustMPH,Humidity,HourlyPrecipIn,Conditions,Clouds,dailyrainin,SoftwareType,DateUTC
2013-08-13 00:12:00,63.0,60.0,29.81,NW,319,1.0,-999.0,90,-99.99,,,-99.99,,2013-08-13 04:12:00,
2013-08-13 00:23:00,63.0,60.0,29.82,NW,310,6.0,-999.0,90,-99.99,,,-99.99,,2013-08-13 04:23:00,
2013-08-13 00:42:00,63.0,59.0,29.81,NW,322,8.0,-999.0,87,-99.99,,,-99.99,,2013-08-13 04:42:00,
2013-08-13 00:53:00,62.0,58.0,29.81,NW,307,10.0,-999.0,88,-99.99,,,-99.99,,2013-08-13 04:53:00,
2013-08-13 01:12:00,62.0,59.0,29.82,NW,311,9.0,-999.0,89,-99.99,,,-99.99,,2013-08-13 05:12:00,
2013-08-13 01:21:00,61.0,58.0,29.82,NW,319,8.0,-999.0,90,-99.99,,,-99.99,,2013-08-13 05:21:00,
2013-08-13 01:52:00,61.0,58.0,29.81,NW,323,10.0,-999.0,91,-99.99,,,-99.99,,2013-08-13 05:52:00,
2013-08-13 02:11:00,61.0,58.0,29.82,NW,321,10.0,-999.0,90,-99.99,,,-99.99,,2013-08-13 06:11:00,
2013-08-13 02:21:00,61.0,58.0,29.82,NW,317,10.0,-999.0,90,-99.99,,,-99.99,,2013-08-13 06:21:00,
2013-08-13 02:52:00,60.0,56.0,29.82,NW,320,12.0,-999.0,88,-99.99,,,-99.99,,2013-08-13 06:52:00,
2013-08-13 03:21:00,59.0,56.0,29.82,NW,322,11.0,-999.0,89,-99.99,,,-99.99,,2013-08-13 07:21:00,
2013-08-13 03:52:00,57.0,54.0,29.83,NW,306,10.0,-999.0,90,-99.99,,,-99.99,,2013-08-13 07:52:00,
2013-08-13 04:22:00,56.0,53.0,29.83,NNW,331,10.0,-999.0,89,-99.99,,,-99.99,,2013-08-13 08:22:00,
2013-08-13 04:42:00,55.0,52.0,29.83,NNW,332,9.0,-999.0,89,-99.99,,,-99.99,,2013-08-13 08:42:00,
2013-08-13 04:52:00,55.0,52.0,29.83,NNW,328,8.0,-999.0,89,-99.99,,,-99.99,,2013-08-13 08:52:00,
2013-08-13 05:11:00,54.0,51.0,29.83,NW,321,10.0,-999.0,88,-99.99,,,-99.99,,2013-08-13 09:11:00,
2013-08-13 05:22:00,54.0,51.0,29.84,NNW,337,9.0,-999.0,88,-99.99,,,-99.99,,2013-08-13 09:22:00,
2013-08-13 05:43:00,53.0,49.0,29.85,NNW,336,11.0,-999.0,86,-99.99,,,-99.99,,2013-08-13 09:43:00,
2013-08-13 05:53:00,53.0,49.0,29.85,NNW,336,9.0,-999.0,86,-99.99,,,-99.99,,2013-08-13 09:53:00,
2013-08-13 06:12:00,52.0,48.0,29.85,NNW,336,8.0,-999.0,86,-99.99,,,-99.99,,2013-08-13 10:12:00,
2013-08-13 06:23:00,51.0,47.0,29.86,NW,317,5.0,-999.0,87,-99.99,,,-99.99,,2013-08-13 10:23:00,
2013-08-13 06:42:00,52.0,48.0,29.87,NW,320,5.0,-999.0,87,-99.99,,,-99.99,,2013-08-13 10:42:00,
2013-08-13 06:52:00,52.0,49.0,29.87,NW,305,3.0,-999.0,88,-99.99,,,-99.99,,2013-08-13 10:52:00,
2013-08-13 07:11:00,52.0,49.0,29.88,NW,304,1.0,-999.0,88,-99.99,,,-99.99,,2013-08-13 11:11:00,
2013-08-13 07:22:00,52.0,49.0,29.88,NW,304,1.0,-999.0,89,-99.99,,,-99.99,,2013-08-13 11:22:00,
2013-08-13 07:52:00,52.0,49.0,29.89,NW,304,4.0,-999.0,88,-99.99,,,-99.99,,2013-08-13 11:52:00,
2013-08-13 08:12:00,52.0,48.0,29.90,WNW,302,6.0,-999.0,86,-99.99,,,-99.99,,2013-08-13 12:12:00,
2013-08-13 08:21:00,53.0,48.0,29.91,WNW,301,8.0,-999.0,84,-99.99,,,-99.99,,2013-08-13 12:21:00,
2013-08-13 08:42:00,53.0,48.0,29.91,NW,314,7.0,-999.0,83,-99.99,,,-99.99,,2013-08-13 12:42:00,
2013-08-13 08:52:00,54.0,48.0,29.92,NW,319,9.0,-999.0,81,-99.99,,,-99.99,,2013-08-13 12:52:00,
2013-08-13 09:11:00,54.0,48.0,29.92,NW,323,10.0,-999.0,80,-99.99,,,-99.99,,2013-08-13 13:11:00,
2013-08-13 09:22:00,54.0,48.0,29.93,North,360,12.0,-999.0,79,-99.99,,,-99.99,,2013-08-13 13:22:00,
2013-08-13 09:52:00,56.0,48.0,29.93,NW,320,10.0,-999.0,74,-99.99,,,-99.99,,2013-08-13 13:52:00,
2013-08-13 10:11:00,56.0,48.0,29.93,NW,313,11.0,-999.0,74,-99.99,,,-99.99,,2013-08-13 14:11:00,
2013-08-13 10:22:00,57.0,47.0,29.94,NNW,348,11.0,-999.0,68,-99.99,,,-99.99,,2013-08-13 14:22:00,
2013-08-13 10:42:00,58.0,48.0,29.93,NW,306,10.0,-999.0,70,-99.99,,,-99.99,,2013-08-13 14:42:00,
2013-08-13 10:52:00,57.0,47.0,29.94,NNW,329,13.0,-999.0,68,-99.99,,,-99.99,,2013-08-13 14:52:00,
2013-08-13 11:11:00,59.0,48.0,29.95,NNW,329,11.0,-999.0,67,-99.99,,,-99.99,,2013-08-13 15:11:00,
2013-08-13 11:22:00,59.0,48.0,29.95,WNW,301,12.0,-999.0,67,-99.99,,,-99.99,,2013-08-13 15:22:00,
2013-08-13 11:54:00,59.0,46.0,29.95,NW,311,14.0,-999.0,63,-99.99,,,-99.99,,2013-08-13 15:54:00,
2013-08-13 12:13:00,61.0,46.0,29.96,NW,325,14.0,-999.0,57,-99.99,,,-99.99,,2013-08-13 16:13:00,
2013-08-13 12:23:00,60.0,47.0,29.96,NNW,336,12.0,-999.0,61,-99.99,,,-99.99,,2013-08-13 16:23:00,
2013-08-13 12:54:00,61.0,46.0,29.95,NNW,332,11.0,-999.0,58,-99.99,,,-99.99,,2013-08-13 16:54:00,
2013-08-13 13:16:00,63.0,47.0,29.95,NNW,337,13.0,-999.0,55,-99.99,,,-99.99,,2013-08-13 17:16:00,
2013-08-13 13:27:00,63.0,46.0,29.94,NNW,344,11.0,-999.0,53,-99.99,,,-99.99,,2013-08-13 17:27:00,
2013-08-13 13:46:00,-999.0,-99.9,29.94,NNW,348,11.0,-999.0,-999,-99.99,,,-99.99,,2013-08-13 17:46:00,
2013-08-13 13:56:00,64.0,45.0,29.94,NW,309,11.0,-999.0,51,-99.99,,,-99.99,,2013-08-13 17:56:00,
2013-08-13 14:15:00,63.0,44.0,29.94,NNW,327,14.0,-999.0,50,-99.99,,,-99.99,,2013-08-13 18:15:00,
2013-08-13 14:25:00,65.0,45.0,29.94,NW,304,10.0,-999.0,49,-99.99,,,-99.99,,2013-08-13 18:25:00,
2013-08-13 14:44:00,65.0,45.0,29.93,NW,306,11.0,-999.0,48,-99.99,,,-99.99,,2013-08-13 18:44:00,
2013-08-13 14:56:00,65.0,46.0,29.94,NW,322,12.0,-999.0,51,-99.99,,,-99.99,,2013-08-13 18:56:00,
2013-08-13 15:14:00,65.0,44.0,29.94,NNW,331,10.0,-999.0,47,-99.99,,,-99.99,,2013-08-13 19:14:00,
2013-08-13 15:25:00,65.0,46.0,29.93,NNW,329,8.0,-999.0,50,-99.99,,,-99.99,,2013-08-13 19:25:00,
2013-08-13 15:44:00,65.0,46.0,29.93,NW,309,12.0,-999.0,51,-99.99,,,-99.99,,2013-08-13 19:44:00,
2013-08-13 15:55:00,66.0,45.0,29.93,WSW,238,9.0,-999.0,46,-99.99,,,-99.99,,2013-08-13 19:55:00,
2013-08-13 16:15:00,65.0,44.0,29.93,NW,304,12.0,-999.0,47,-99.99,,,-99.99,,2013-08-13 20:15:00,
2013-08-13 16:22:00,66.0,44.0,29.93,NW,308,12.0,-999.0,45,-99.99,,,-99.99,,2013-08-13 20:22:00,
2013-08-13 16:53:00,65.0,43.0,29.94,NNW,330,14.0,-999.0,45,-99.99,,,-99.99,,2013-08-13 20:53:00,
2013-08-13 17:11:00,65.0,45.0,29.95,NW,308,13.0,-999.0,49,-99.99,,,-99.99,,2013-08-13 21:11:00,
2013-08-13 17:24:00,65.0,45.0,29.95,NW,319,13.0,-999.0,49,-99.99,,,-99.99,,2013-08-13 21:24:00,
2013-08-13 17:54:00,64.0,47.0,29.96,NW,321,12.0,-999.0,54,-99.99,,,-99.99,,2013-08-13 21:54:00,
2013-08-13 18:13:00,63.0,45.0,29.96,NW,318,16.0,-999.0,51,-99.99,,,-99.99,,2013-08-13 22:13:00,
2013-08-13 18:23:00,62.0,45.0,29.97,NW,317,14.0,-999.0,54,-99.99,,,-99.99,,2013-08-13 22:23:00,
2013-08-13 18:50:00,61.0,44.0,29.97,NNW,339,13.0,-999.0,54,-99.99,,,-99.99,,2013-08-13 22:50:00,
2013-08-13 18:56:00,61.0,46.0,29.97,NW,314,11.0,-999.0,57,-99.99,,,-99.99,,2013-08-13 22:56:00,
2013-08-13 19:13:00,61.0,46.0,29.97,NW,314,11.0,-999.0,57,-99.99,,,-99.99,,2013-08-13 23:13:00,
2013-08-13 19:26:00,61.0,46.0,29.97,NW,321,11.0,-999.0,57,-99.99,,,-99.99,,2013-08-13 23:26:00,
2013-08-13 19:56:00,60.0,46.0,29.98,NW,326,11.0,-999.0,60,-99.99,,,-99.99,,2013-08-13 23:56:00,
2013-08-13 20:11:00,60.0,47.0,29.98,NNW,334,11.0,-999.0,61,-99.99,,,-99.99,,2013-08-14 00:11:00,
2013-08-13 20:22:00,60.0,47.0,29.98,NNW,334,11.0,-999.0,61,-99.99,,,-99.99,,2013-08-14 00:22:00,
2013-08-13 20:42:00,59.0,47.0,29.98,NW,311,9.0,-999.0,64,-99.99,,,-99.99,,2013-08-14 00:42:00,
2013-08-13 20:52:00,59.0,47.0,29.98,NW,309,8.0,-999.0,64,-99.99,,,-99.99,,2013-08-14 00:52:00,
2013-08-13 21:11:00,58.0,47.0,29.98,NW,307,8.0,-999.0,66,-99.99,,,-99.99,,2013-08-14 01:11:00,
2013-08-13 21:21:00,58.0,47.0,29.99,NW,309,6.0,-999.0,68,-99.99,,,-99.99,,2013-08-14 01:21:00,
2013-08-13 21:42:00,57.0,47.0,29.99,WNW,299,6.0,-999.0,68,-99.99,,,-99.99,,2013-08-14 01:42:00,
2013-08-13 21:52:00,56.0,45.0,30.00,NW,317,8.0,-999.0,67,-99.99,,,-99.99,,2013-08-14 01:52:00,
2013-08-13 22:11:00,57.0,45.0,30.00,NW,322,9.0,-999.0,65,-99.99,,,-99.99,,2013-08-14 02:11:00,
2013-08-13 22:22:00,56.0,45.0,30.01,NW,321,9.0,-999.0,66,-99.99,,,-99.99,,2013-08-14 02:22:00,
2013-08-13 22:42:00,55.0,45.0,30.01,NNW,343,8.0,-999.0,68,-99.99,,,-99.99,,2013-08-14 02:42:00,
2013-08-13 22:52:00,55.0,45.0,30.01,NNW,334,8.0,-999.0,69,-99.99,,,-99.99,,2013-08-14 02:52:00,
2013-08-13 23:22:00,53.0,45.0,30.02,NNW,329,4.0,-999.0,74,-99.99,,,-99.99,,2013-08-14 03:22:00,
2013-08-13 23:43:00,53.0,45.0,30.02,NW,316,4.0,-999.0,75,-99.99,,,-99.99,,2013-08-14 03:43:00,
2013-08-13 23:53:00,53.0,46.0,30.02,NW,322,5.0,-999.0,76,-99.99,,,-99.99,,2013-08-14 03:53:00,